Time;durP1;ratioP1;P1;durP2;ratioP2;P2;SDS_P1;SDS_P2;PMS_P1;PMS_P2;Temp;Humidity;BMP_temperature;BMP_pressure;BME280_temperature;BME280_humidity;BME280_pressure;Samples;Min_cycle;Max_cycle;Signal;HPM_P1;HPM_P2
2021/10/20 00:02:26;;;;;;;11.98;7.03;;;;;;;10.66;94.23;98175.78;5026162;28;20060;-67
2021/10/20 00:04:54;;;;;;;11.82;6.93;;;;;;;11.03;93.42;98221.84;5026033;28;20115;-68
2021/10/20 00:07:21;;;;;;;15.15;7.68;;;;;;;10.67;94.79;98214.25;5025955;28;20107;-67
2021/10/20 00:09:48;;;;;;;13.68;8.07;;;;;;;10.77;94.92;98217.72;5023877;28;20532;-67
2021/10/20 00:12:15;;;;;;;13.75;7.32;;;;;;;10.51;94.60;98171.72;5025654;28;20053;-67
2021/10/20 00:14:42;;;;;;;15.30;7.95;;;;;;;10.88;93.49;98228.03;5025797;28;20053;-68
2021/10/20 00:17:09;;;;;;;11.93;6.85;;;;;;;10.95;92.26;98219.97;5025972;28;20053;-67
2021/10/20 00:19:35;;;;;;;15.98;7.93;;;;;;;10.83;93.09;98227.47;5025155;28;20064;-68
2021/10/20 00:22:02;;;;;;;10.82;7.13;;;;;;;10.81;93.57;98226.97;5024735;28;20049;-68
2021/10/20 00:24:29;;;;;;;14.70;7.28;;;;;;;10.67;95.32;98222.56;5025366;28;20049;-68
2021/10/20 00:26:56;;;;;;;12.27;7.05;;;;;;;10.78;96.14;98213.81;5025555;28;20064;-68
2021/10/20 00:29:22;;;;;;;17.08;6.80;;;;;;;10.60;96.20;98205.69;5025838;28;20060;-67
2021/10/20 00:31:49;;;;;;;11.73;7.10;;;;;;;10.72;95.51;98220.72;5025088;28;20057;-70
2021/10/20 00:34:16;;;;;;;15.57;8.18;;;;;;;10.81;94.93;98215.91;5025451;28;20057;-70
2021/10/20 00:36:43;;;;;;;14.98;7.55;;;;;;;10.72;95.23;98207.66;5023719;28;20050;-68
2021/10/20 00:39:09;;;;;;;9.30;6.82;;;;;;;10.08;96.17;98135.34;5025491;28;20053;-69
2021/10/20 00:41:36;;;;;;;13.98;8.23;;;;;;;10.35;98.71;98206.75;5024815;28;20531;-69
2021/10/20 00:44:03;;;;;;;12.57;7.15;;;;;;;10.13;98.32;98175.84;5023725;28;20057;-69
2021/10/20 00:46:30;;;;;;;12.40;6.75;;;;;;;10.54;97.23;98204.25;5024926;28;20076;-70
2021/10/20 00:48:57;;;;;;;11.32;7.03;;;;;;;10.58;96.94;98216.31;5024707;28;20603;-69
2021/10/20 00:51:25;;;;;;;11.55;6.68;;;;;;;9.97;97.56;98131.38;5024100;28;20049;-69
2021/10/20 00:53:54;;;;;;;13.15;7.50;;;;;;;10.25;97.98;98196.09;5024343;28;20061;-69
2021/10/20 00:56:21;;;;;;;12.35;7.38;;;;;;;9.81;97.68;98102.69;5024762;28;20053;-69
2021/10/20 00:58:48;;;;;;;12.20;7.18;;;;;;;9.59;96.76;98067.09;5025033;28;20544;-69
2021/10/20 01:01:16;;;;;;;10.73;6.53;;;;;;;10.53;96.53;98213.75;5024461;28;20050;-69
2021/10/20 01:03:44;;;;;;;11.05;6.57;;;;;;;10.59;94.99;98190.19;5024937;28;20054;-69
2021/10/20 01:06:12;;;;;;;9.30;6.38;;;;;;;10.73;93.84;98200.16;5023162;28;20052;-70
2021/10/20 01:08:40;;;;;;;10.55;6.20;;;;;;;10.64;94.24;98198.31;5024542;28;20077;-69
2021/10/20 01:11:07;;;;;;;9.98;6.75;;;;;;;10.60;95.05;98197.38;5024489;28;20061;-70
2021/10/20 01:13:34;;;;;;;11.38;6.43;;;;;;;10.48;96.73;98194.56;5024671;28;20057;-69
2021/10/20 01:16:02;;;;;;;11.35;6.38;;;;;;;10.28;98.06;98189.88;5024442;28;20057;-69
2021/10/20 01:18:29;;;;;;;13.70;7.65;;;;;;;10.36;98.97;98202.84;5025074;28;20546;-69
2021/10/20 01:21:00;;;;;;;10.50;6.80;;;;;;;10.43;97.87;98197.53;5024063;28;20061;-69
2021/10/20 01:23:28;;;;;;;13.50;7.32;;;;;;;10.45;97.63;98200.78;5022828;28;20075;-68
2021/10/20 01:25:56;;;;;;;12.30;7.18;;;;;;;10.34;98.26;98194.06;5024199;28;20094;-67
2021/10/20 01:28:23;;;;;;;19.02;7.28;;;;;;;10.26;98.96;98200.47;5024763;28;20060;-69
2021/10/20 01:30:50;;;;;;;11.38;7.10;;;;;;;10.27;98.35;98191.03;5024076;28;20052;-69
2021/10/20 01:33:16;;;;;;;11.32;7.47;;;;;;;10.01;98.87;98167.44;5024238;28;20072;-69
2021/10/20 01:35:43;;;;;;;12.93;7.40;;;;;;;10.25;98.16;98189.75;5024259;28;20057;-69
2021/10/20 01:38:10;;;;;;;11.25;6.68;;;;;;;8.88;98.52;97985.38;5024408;28;20049;-69
2021/10/20 01:40:37;;;;;;;12.93;6.88;;;;;;;10.06;98.87;98201.28;5024434;28;20504;-69
2021/10/20 01:43:03;;;;;;;11.95;7.05;;;;;;;9.93;99.72;98202.38;5024024;28;20045;-69
2021/10/20 01:45:30;;;;;;;12.95;7.28;;;;;;;10.08;99.81;98212.88;5023788;28;20056;-69
2021/10/20 01:47:57;;;;;;;15.60;6.95;;;;;;;10.13;99.38;98209.09;5022214;28;20076;-69
2021/10/20 01:50:24;;;;;;;13.20;7.25;;;;;;;9.90;100.00;98200.28;5023740;28;20421;-69
2021/10/20 01:52:51;;;;;;;12.05;7.60;;;;;;;9.80;100.00;98195.13;5022290;28;20056;-69
2021/10/20 01:55:17;;;;;;;16.67;8.23;;;;;;;10.00;100.00;98193.53;5021901;28;20049;-69
2021/10/20 01:57:46;;;;;;;13.85;7.30;;;;;;;9.98;100.00;98191.09;5022928;28;20603;-68
2021/10/20 02:00:14;;;;;;;19.95;9.23;;;;;;;10.09;98.84;98197.88;5024388;28;20049;-69
2021/10/20 02:02:41;;;;;;;20.33;10.43;;;;;;;10.11;98.19;98201.13;5024270;28;20049;-69
2021/10/20 02:05:10;;;;;;;18.08;9.98;;;;;;;9.74;99.18;98155.00;5023803;28;20057;-68
2021/10/20 02:07:37;;;;;;;21.70;8.95;;;;;;;9.86;100.00;98195.75;5024478;28;20108;-69
2021/10/20 02:10:15;;;;;;;14.90;8.10;;;;;;;9.89;100.00;98197.84;5022683;28;20056;-69
2021/10/20 02:12:42;;;;;;;12.98;8.15;;;;;;;9.70;99.75;98178.97;5022478;28;20056;-69
2021/10/20 02:15:10;;;;;;;22.08;10.40;;;;;;;9.77;100.00;98195.03;5023892;28;20053;-69
2021/10/20 02:17:37;;;;;;;25.50;10.55;;;;;;;9.84;100.00;98201.63;5024426;28;20061;-69
2021/10/20 02:20:07;;;;;;;24.83;11.52;;;;;;;9.66;100.00;98200.13;5023209;28;20348;-69
2021/10/20 02:22:35;;;;;;;25.05;12.23;;;;;;;9.25;100.00;98150.28;5023737;28;20518;-69
2021/10/20 02:25:03;;;;;;;20.15;10.75;;;;;;;9.51;100.00;98194.38;5023491;28;20062;-69
2021/10/20 02:27:29;;;;;;;17.35;8.88;;;;;;;9.54;100.00;98191.75;5021960;28;20068;-69
2021/10/20 02:29:56;;;;;;;14.38;8.45;;;;;;;9.58;100.00;98195.47;5023850;28;20053;-69
2021/10/20 02:32:23;;;;;;;14.18;8.40;;;;;;;9.53;100.00;98175.50;5023789;28;20073;-69
2021/10/20 02:34:49;;;;;;;13.45;8.18;;;;;;;9.57;100.00;98182.78;5023055;28;20053;-68
2021/10/20 02:37:16;;;;;;;11.18;7.10;;;;;;;9.62;100.00;98188.13;5022399;28;20533;-69
2021/10/20 02:39:43;;;;;;;21.58;9.32;;;;;;;9.51;100.00;98192.44;5022465;28;20068;-68
2021/10/20 02:42:09;;;;;;;23.65;10.13;;;;;;;9.31;100.00;98175.81;5023380;28;20575;-69
2021/10/20 02:44:36;;;;;;;19.75;9.95;;;;;;;9.37;100.00;98180.81;5022081;28;20053;-69
2021/10/20 02:47:03;;;;;;;19.98;9.68;;;;;;;9.46;100.00;98184.31;5021686;28;20049;-67
2021/10/20 02:49:30;;;;;;;19.45;9.98;;;;;;;9.42;100.00;98183.34;5023329;28;20045;-69
2021/10/20 02:51:56;;;;;;;14.60;8.57;;;;;;;8.27;100.00;98030.22;5023348;28;20050;-69
2021/10/20 02:54:23;;;;;;;18.25;9.73;;;;;;;9.14;100.00;98182.22;5023295;28;20049;-67
2021/10/20 02:56:50;;;;;;;13.90;8.52;;;;;;;9.24;100.00;98181.84;5023729;28;20084;-69
2021/10/20 02:59:17;;;;;;;14.15;7.75;;;;;;;9.32;100.00;98185.72;5025178;28;20054;-68
2021/10/20 03:01:43;;;;;;;18.20;9.48;;;;;;;9.10;100.00;98187.59;5026807;28;20504;-69
2021/10/20 03:04:10;;;;;;;16.35;8.07;;;;;;;9.06;100.00;98188.59;5027276;28;20057;-69
2021/10/20 03:06:37;;;;;;;14.55;8.77;;;;;;;8.38;100.00;98070.13;5025459;28;20057;-68
2021/10/20 03:09:04;;;;;;;25.77;14.32;;;;;;;9.19;100.00;98190.34;5027070;28;20183;-68
2021/10/20 03:11:31;;;;;;;22.27;12.32;;;;;;;9.01;100.00;98158.38;5026409;28;20064;-68
2021/10/20 03:13:58;;;;;;;98.57;41.17;;;;;;;9.24;100.00;98179.09;5027017;28;20063;-68
2021/10/20 03:16:25;;;;;;;43.60;21.73;;;;;;;8.94;100.00;98160.88;5027339;28;20053;-68
2021/10/20 03:18:53;;;;;;;26.23;15.68;;;;;;;9.14;100.00;98193.28;5026696;28;20053;-68
2021/10/20 03:21:20;;;;;;;22.77;13.95;;;;;;;8.85;100.00;98140.78;5026458;28;20057;-69
2021/10/20 03:23:47;;;;;;;19.50;10.02;;;;;;;8.91;100.00;98122.84;5026453;28;20064;-68
2021/10/20 03:26:13;;;;;;;16.60;9.30;;;;;;;9.23;100.00;98171.13;5024794;28;20053;-69
2021/10/20 03:28:40;;;;;;;17.00;9.48;;;;;;;9.33;100.00;98204.72;5024926;28;20059;-69
2021/10/20 03:31:07;;;;;;;14.75;9.02;;;;;;;9.31;100.00;98193.19;5026583;28;20504;-69
2021/10/20 03:33:34;;;;;;;16.85;10.20;;;;;;;8.91;100.00;98150.50;5026836;28;20136;-69
2021/10/20 03:36:01;;;;;;;20.45;11.55;;;;;;;9.28;100.00;98191.09;5026630;28;20045;-69
2021/10/20 03:38:28;;;;;;;23.63;12.00;;;;;;;9.34;100.00;98189.78;5025200;28;20079;-68
2021/10/20 03:40:55;;;;;;;21.17;10.73;;;;;;;8.91;100.00;98117.34;5026105;28;20611;-68
2021/10/20 03:43:35;;;;;;;23.95;11.55;;;;;;;8.83;100.00;98105.19;5026662;28;20468;-69
2021/10/20 03:46:02;;;;;;;18.98;11.52;;;;;;;9.33;100.00;98190.91;5026151;28;20075;-68
2021/10/20 03:48:29;;;;;;;18.10;10.30;;;;;;;9.44;100.00;98196.88;5026382;28;20060;-69
2021/10/20 03:50:55;;;;;;;15.68;9.73;;;;;;;9.47;99.49;98190.69;5026023;28;20057;-68
2021/10/20 03:53:22;;;;;;;16.58;9.38;;;;;;;9.14;99.92;98160.13;5026642;28;20550;-69
2021/10/20 03:55:49;;;;;;;17.67;9.35;;;;;;;9.07;100.00;98148.78;5026198;28;20059;-70
2021/10/20 03:58:17;;;;;;;19.88;9.18;;;;;;;9.42;100.00;98194.41;5024985;28;20045;-69
2021/10/20 04:00:44;;;;;;;19.33;9.77;;;;;;;8.85;100.00;98140.78;5024639;28;20456;-68
2021/10/20 04:03:11;;;;;;;23.80;11.68;;;;;;;9.17;100.00;98193.44;5026097;28;20060;-69
2021/10/20 04:05:38;;;;;;;22.63;12.77;;;;;;;8.73;100.00;98105.56;5025855;28;20166;-69
2021/10/20 04:08:05;;;;;;;18.88;10.75;;;;;;;8.21;100.00;98037.06;5024219;28;20045;-69
2021/10/20 04:10:31;;;;;;;16.98;9.38;;;;;;;8.63;100.00;98086.59;5024044;28;20049;-68
2021/10/20 04:12:58;;;;;;;15.60;10.02;;;;;;;8.97;100.00;98132.56;5026237;28;20045;-73
2021/10/20 04:15:26;;;;;;;18.75;10.15;;;;;;;9.39;98.55;98200.63;5025403;28;20054;-68
2021/10/20 04:17:53;;;;;;;22.98;10.77;;;;;;;9.17;99.54;98203.66;5025825;28;20084;-68
2021/10/20 04:20:22;;;;;;;27.30;14.00;;;;;;;9.08;100.00;98178.03;5023967;28;20057;-69
2021/10/20 04:22:49;;;;;;;23.13;12.13;;;;;;;9.28;100.00;98196.63;5024136;28;20234;-69
2021/10/20 04:25:17;;;;;;;22.35;10.73;;;;;;;9.32;99.61;98189.28;5024427;28;20065;-66
2021/10/20 04:27:45;;;;;;;21.55;11.27;;;;;;;9.30;100.00;98191.56;5024649;28;20088;-68
2021/10/20 04:30:14;;;;;;;24.42;11.63;;;;;;;9.07;100.00;98154.31;5025402;28;20467;-69
2021/10/20 04:32:41;;;;;;;20.45;10.52;;;;;;;9.17;100.00;98184.31;5025961;28;20511;-72
2021/10/20 04:35:10;;;;;;;19.02;10.60;;;;;;;8.82;100.00;98142.22;5023543;28;20053;-71
2021/10/20 04:37:38;;;;;;;20.55;8.90;;;;;;;9.05;100.00;98173.19;5025835;28;20057;-68
2021/10/20 04:40:07;;;;;;;20.08;11.60;;;;;;;7.06;100.00;97841.50;5024932;28;20056;-70
2021/10/20 04:42:34;;;;;;;31.83;14.40;;;;;;;9.27;100.00;98185.91;5025276;28;20060;-70
2021/10/20 04:45:01;;;;;;;23.38;11.57;;;;;;;8.80;100.00;98110.56;5025326;28;20107;-70
2021/10/20 04:47:28;;;;;;;12.93;8.68;;;;;;;9.35;99.91;98194.16;5023703;28;20164;-71
2021/10/20 04:49:55;;;;;;;24.13;11.45;;;;;;;8.78;99.71;98118.38;5025000;28;20057;-71
2021/10/20 04:52:24;;;;;;;28.05;14.50;;;;;;;9.29;99.31;98189.97;5023496;28;20057;-69
2021/10/20 04:54:52;;;;;;;27.35;13.27;;;;;;;8.75;100.00;98130.91;5023215;28;20443;-69
2021/10/20 04:57:19;;;;;;;30.17;14.82;;;;;;;9.17;100.00;98181.56;5024515;28;20057;-69
2021/10/20 04:59:46;;;;;;;26.70;13.82;;;;;;;9.16;100.00;98196.53;5024791;28;20526;-70
2021/10/20 05:02:12;;;;;;;24.58;12.32;;;;;;;9.08;100.00;98189.91;5024558;28;20049;-69
2021/10/20 05:04:39;;;;;;;35.30;12.30;;;;;;;9.02;100.00;98190.44;5024419;28;20504;-69
2021/10/20 05:07:06;;;;;;;26.38;13.00;;;;;;;9.13;100.00;98186.16;5022949;28;20496;-73
2021/10/20 05:09:33;;;;;;;26.48;12.75;;;;;;;8.94;100.00;98183.00;5024630;28;20045;-68
2021/10/20 05:11:59;;;;;;;39.90;18.80;;;;;;;9.18;100.00;98188.72;5024384;28;20563;-68
2021/10/20 05:14:26;;;;;;;33.70;16.90;;;;;;;9.23;100.00;98196.84;5024485;28;20496;-69
2021/10/20 05:16:53;;;;;;;38.25;18.20;;;;;;;9.47;97.50;98191.47;5023998;28;20575;-69
2021/10/20 05:19:19;;;;;;;30.83;17.38;;;;;;;8.74;96.06;98078.75;5024020;28;20056;-67
2021/10/20 05:21:46;;;;;;;24.75;14.38;;;;;;;9.58;95.77;98192.69;5023404;28;20054;-70
2021/10/20 05:24:13;;;;;;;24.63;12.55;;;;;;;9.07;94.91;98132.22;5024026;28;20531;-68
2021/10/20 05:26:40;;;;;;;22.02;12.80;;;;;;;9.41;95.67;98192.00;5022960;28;20053;-67
2021/10/20 05:29:06;;;;;;;19.38;10.35;;;;;;;9.51;95.14;98197.16;5022710;28;20436;-71
2021/10/20 05:31:33;;;;;;;17.92;9.07;;;;;;;9.66;95.35;98204.88;5024203;28;20057;-69
2021/10/20 05:34:00;;;;;;;17.65;9.68;;;;;;;9.76;95.38;98194.19;5022754;28;20084;-69
2021/10/20 05:36:27;;;;;;;19.48;10.10;;;;;;;9.85;94.65;98192.16;5022312;28;20056;-67
2021/10/20 05:38:54;;;;;;;25.92;13.57;;;;;;;9.24;92.49;98104.44;5024010;28;20196;-69
2021/10/20 05:41:21;;;;;;;16.75;8.95;;;;;;;9.73;93.08;98199.59;5023905;28;20049;-68
2021/10/20 05:43:47;;;;;;;15.52;8.20;;;;;;;9.39;93.00;98145.31;5023991;28;20057;-68
2021/10/20 05:46:14;;;;;;;18.10;9.05;;;;;;;9.60;93.78;98179.34;5024137;28;20049;-69
2021/10/20 05:48:41;;;;;;;20.35;9.38;;;;;;;9.02;93.45;98074.34;5023066;28;20060;-69
2021/10/20 05:51:08;;;;;;;19.80;9.10;;;;;;;10.00;91.97;98199.88;5023704;28;20059;-68
2021/10/20 05:53:34;;;;;;;15.52;8.15;;;;;;;9.64;90.62;98136.00;5019540;28;20708;-61
2021/10/20 05:56:03;;;;;;;14.70;8.95;;;;;;;10.26;91.08;98219.88;5026305;28;20071;-61
2021/10/20 05:58:29;;;;;;;20.35;10.13;;;;;;;10.21;91.04;98178.53;5020969;28;20063;-69
2021/10/20 06:00:56;;;;;;;14.98;8.25;;;;;;;10.57;90.35;98214.66;5022513;28;20049;-61
2021/10/20 06:03:23;;;;;;;17.00;8.63;;;;;;;10.23;87.93;98156.84;5022856;28;20164;-61
2021/10/20 06:05:50;;;;;;;16.15;9.10;;;;;;;10.11;86.15;98095.91;5022978;28;20057;-61
2021/10/20 06:08:17;;;;;;;16.58;9.52;;;;;;;10.97;85.82;98227.94;5021672;28;20050;-61
2021/10/20 06:10:44;;;;;;;16.38;9.18;;;;;;;11.05;84.90;98208.41;5023080;28;20055;-58
2021/10/20 06:13:10;;;;;;;18.33;9.25;;;;;;;11.31;82.37;98216.41;5023112;28;20045;-62
2021/10/20 06:15:41;;;;;;;27.75;13.55;;;;;;;11.36;82.50;98213.41;5022887;28;20045;-66
2021/10/20 06:18:08;;;;;;;17.10;9.73;;;;;;;11.52;81.88;98217.91;5020840;28;20053;-66
2021/10/20 06:20:35;;;;;;;22.85;13.00;;;;;;;9.68;81.72;97915.66;5022473;28;20441;-62
2021/10/20 06:23:03;;;;;;;28.13;12.73;;;;;;;11.67;81.27;98219.19;5023540;28;20427;-67
2021/10/20 06:25:30;;;;;;;25.20;13.50;;;;;;;10.71;81.02;98042.56;5021401;28;20072;-67
2021/10/20 06:27:58;;;;;;;21.20;10.77;;;;;;;11.94;79.04;98218.47;5020856;28;20507;-70
2021/10/20 06:30:24;;;;;;;19.02;10.25;;;;;;;11.97;78.85;98220.53;5022992;28;20061;-65
2021/10/20 06:32:51;;;;;;;18.02;10.40;;;;;;;11.68;78.61;98154.22;5023457;28;20049;-60
2021/10/20 06:35:18;;;;;;;14.07;8.63;;;;;;;12.13;78.15;98224.19;5026634;28;20579;-67
2021/10/20 06:37:47;;;;;;;13.48;8.52;;;;;;;11.85;76.76;98156.72;5026779;28;20045;-68
2021/10/20 06:40:14;;;;;;;22.00;9.45;;;;;;;12.16;75.50;98187.38;5025943;28;20053;-67
2021/10/20 06:42:41;;;;;;;16.63;9.30;;;;;;;11.99;75.49;98154.34;5027145;28;20068;-64
2021/10/20 06:45:08;;;;;;;16.83;9.43;;;;;;;12.02;75.45;98136.97;5024725;28;20057;-62
2021/10/20 06:47:35;;;;;;;15.25;9.80;;;;;;;12.89;74.48;98227.56;5026704;28;20055;-62
2021/10/20 06:50:03;;;;;;;13.43;8.52;;;;;;;13.07;74.92;98231.66;5025117;28;20064;-65
2021/10/20 06:52:30;;;;;;;15.25;8.93;;;;;;;12.95;72.62;98230.91;5026894;28;20447;-67
2021/10/20 06:54:57;;;;;;;15.10;9.20;;;;;;;12.44;73.45;98127.03;5026592;28;20064;-67
2021/10/20 06:57:23;;;;;;;15.50;8.65;;;;;;;12.70;72.03;98163.50;5026544;28;20049;-61
2021/10/20 06:59:50;;;;;;;20.67;11.90;;;;;;;13.34;70.67;98233.56;5025355;28;20060;-64
2021/10/20 07:02:17;;;;;;;16.45;10.25;;;;;;;13.05;69.45;98197.84;5026564;28;20140;-59
2021/10/20 07:04:44;;;;;;;16.30;9.95;;;;;;;13.12;69.94;98220.25;5024002;28;20088;-62
2021/10/20 07:07:12;;;;;;;13.68;9.18;;;;;;;12.54;69.04;98132.09;5023095;28;20076;-64
2021/10/20 07:09:39;;;;;;;12.85;8.80;;;;;;;12.96;69.22;98197.16;5025046;28;20053;-65
2021/10/20 07:12:06;;;;;;;14.13;9.07;;;;;;;13.23;69.23;98198.28;5026564;28;20089;-67
2021/10/20 07:14:33;;;;;;;16.48;10.55;;;;;;;11.88;68.01;97908.91;5024450;28;20111;-66
2021/10/20 07:17:01;;;;;;;13.68;8.27;;;;;;;14.04;66.80;98222.47;5025719;28;20053;-65
2021/10/20 07:19:28;;;;;;;27.45;14.98;;;;;;;14.23;67.01;98236.44;5023503;28;20053;-61
2021/10/20 07:21:55;;;;;;;15.00;9.98;;;;;;;13.51;66.30;98082.84;5024703;28;20426;-67
2021/10/20 07:24:21;;;;;;;12.98;8.57;;;;;;;14.31;64.91;98188.06;5024876;28;20053;-67
2021/10/20 07:26:50;;;;;;;14.00;7.90;;;;;;;14.49;64.02;98189.25;5023914;28;20057;-62
2021/10/20 07:29:17;;;;;;;11.75;7.82;;;;;;;14.33;63.06;98180.16;5025820;28;20163;-64
2021/10/20 07:31:44;;;;;;;18.70;9.02;;;;;;;13.84;63.98;98089.94;5024329;28;20839;-68
2021/10/20 07:34:11;;;;;;;16.73;10.07;;;;;;;14.39;64.51;98178.69;5021877;28;20140;-61
2021/10/20 07:36:38;;;;;;;12.80;8.02;;;;;;;14.08;63.11;98078.50;5024474;28;20118;-61
2021/10/20 07:39:05;;;;;;;14.02;8.60;;;;;;;15.00;62.99;98229.72;5030860;28;20061;-68
2021/10/20 07:41:32;;;;;;;17.20;8.38;;;;;;;15.02;63.03;98224.53;5025166;28;20140;-63
2021/10/20 07:43:59;;;;;;;39.05;17.67;;;;;;;14.49;61.49;98128.72;5025711;28;20153;-63
2021/10/20 07:46:26;;;;;;;29.42;13.20;;;;;;;15.31;62.48;98226.69;5026010;28;20512;-60
2021/10/20 07:48:53;;;;;;;13.57;7.88;;;;;;;14.17;61.23;98017.75;5025665;28;20085;-60
2021/10/20 07:51:20;;;;;;;10.60;7.10;;;;;;;15.23;61.07;98185.84;5025793;28;20045;-61
2021/10/20 07:53:47;;;;;;;17.23;8.30;;;;;;;15.42;61.72;98194.19;5025661;28;20502;-68
2021/10/20 07:56:14;;;;;;;12.02;7.57;;;;;;;15.45;61.44;98221.38;5025566;28;20059;-67
2021/10/20 07:58:40;;;;;;;11.80;7.95;;;;;;;14.75;64.20;98187.38;5024950;28;20049;-63
2021/10/20 08:01:07;;;;;;;21.02;11.35;;;;;;;14.72;63.39;98120.34;5023825;28;20057;-69
2021/10/20 08:03:35;;;;;;;24.02;9.57;;;;;;;14.73;62.34;98099.69;5025720;28;20087;-63
2021/10/20 08:06:01;;;;;;;7.75;6.63;;;;;;;15.09;59.71;98143.75;5024375;28;20507;-64
2021/10/20 08:08:28;;;;;;;10.07;8.07;;;;;;;14.14;60.05;98091.75;5024995;28;20049;-70
2021/10/20 08:10:56;;;;;;;10.60;6.53;;;;;;;14.73;59.68;98188.94;5025107;28;20154;-66
2021/10/20 08:13:22;;;;;;;14.13;7.03;;;;;;;15.17;60.23;98192.94;5025176;28;20567;-61
2021/10/20 08:15:49;;;;;;;14.02;8.38;;;;;;;15.58;59.14;98222.78;5024539;28;20342;-68
2021/10/20 08:18:16;;;;;;;13.18;7.60;;;;;;;14.02;59.07;97915.59;5024320;28;20056;-62
2021/10/20 08:20:43;;;;;;;15.88;9.15;;;;;;;16.07;56.78;98212.38;5023215;28;20061;-63
2021/10/20 08:23:10;;;;;;;11.25;6.70;;;;;;;14.86;57.47;98054.47;5025684;28;20061;-63
2021/10/20 08:25:37;;;;;;;9.45;5.85;;;;;;;15.22;56.04;98161.09;5023222;28;20132;-69
2021/10/20 08:28:05;;;;;;;8.18;5.70;;;;;;;15.18;56.11;98184.19;5024537;28;20064;-71
2021/10/20 08:30:34;;;;;;;12.52;6.68;;;;;;;13.29;55.94;97847.00;5025132;28;20163;-70
2021/10/20 08:33:02;;;;;;;10.95;7.38;;;;;;;14.96;55.96;98092.91;5023686;28;20052;-67
2021/10/20 08:35:29;;;;;;;10.10;5.68;;;;;;;15.70;55.54;98149.13;5023572;28;20053;-67
2021/10/20 08:38:01;;;;;;;8.70;6.28;;;;;;;16.14;53.88;98237.63;5024994;28;20053;-63
2021/10/20 08:40:36;;;;;;;21.05;7.30;;;;;;;15.00;54.09;98060.28;5023526;28;20045;-66
2021/10/20 08:43:04;;;;;;;12.37;7.40;;;;;;;16.31;55.43;98174.75;5024510;28;20056;-68
2021/10/20 08:45:31;;;;;;;13.07;6.32;;;;;;;16.59;54.02;98203.09;5024408;28;20060;-67
2021/10/20 08:47:58;;;;;;;11.98;6.30;;;;;;;14.08;52.86;97755.28;5022896;28;20045;-60
2021/10/20 08:50:30;;;;;;;11.30;6.15;;;;;;;16.87;52.18;98169.00;5024122;28;20455;-60
2021/10/20 08:52:57;;;;;;;12.93;7.40;;;;;;;17.00;53.47;98139.56;5023754;28;20046;-61
2021/10/20 08:55:24;;;;;;;11.07;6.35;;;;;;;16.69;50.19;98081.28;5023260;28;20049;-63
2021/10/20 08:57:53;;;;;;;8.20;6.10;;;;;;;17.56;49.37;98198.91;5022138;28;20055;-64
2021/10/20 09:00:21;;;;;;;6.25;5.60;;;;;;;17.74;47.99;98186.63;5024079;28;20068;-69
2021/10/20 09:02:49;;;;;;;7.53;5.35;;;;;;;17.62;47.60;98160.94;5024591;28;20076;-68
2021/10/20 09:05:20;;;;;;;8.40;6.28;;;;;;;17.72;48.27;98182.63;5024486;28;20072;-61
2021/10/20 09:07:48;;;;;;;9.77;6.47;;;;;;;17.57;48.59;98186.50;5023784;28;20537;-62
2021/10/20 09:10:15;;;;;;;8.07;5.88;;;;;;;17.38;48.50;98147.50;5023413;28;20111;-61
2021/10/20 09:12:43;;;;;;;8.32;5.38;;;;;;;17.51;49.41;98165.66;5023201;28;20053;-61
2021/10/20 09:15:15;;;;;;;8.90;6.00;;;;;;;17.45;49.12;98131.56;5022943;28;20068;-61
2021/10/20 09:17:47;;;;;;;8.25;5.60;;;;;;;17.37;48.07;98126.28;5022987;28;20440;-69
2021/10/20 09:20:24;;;;;;;9.45;6.20;;;;;;;17.79;48.39;98177.06;5022111;28;20841;-66
2021/10/20 09:23:20;;;;;;;8.48;5.45;;;;;;;17.29;49.83;98089.00;5020653;28;20049;-65
2021/10/20 09:25:55;;;;;;;9.38;6.28;;;;;;;17.94;50.61;98192.78;5019914;28;20528;-67
2021/10/20 09:28:28;;;;;;;11.23;5.55;;;;;;;17.62;48.32;98116.91;5022300;28;20041;-66
2021/10/20 09:31:02;;;;;;;;;;;;;;;18.02;48.68;98163.56;5021930;28;20049;-65
2021/10/20 09:33:34;;;;;;;5.93;4.97;;;;;;;16.99;47.91;97981.19;5021602;28;20390;-60
2021/10/20 09:36:08;;;;;;;8.48;5.82;;;;;;;17.86;48.78;98115.44;5022169;28;20084;-62
2021/10/20 09:38:40;;;;;;;7.15;5.40;;;;;;;17.95;48.04;98113.09;5023880;28;20540;-68
2021/10/20 09:41:09;;;;;;;9.65;6.38;;;;;;;17.46;49.25;98062.34;5022158;28;20053;-66
2021/10/20 09:43:44;;;;;;;7.70;5.80;;;;;;;18.07;49.97;98149.19;5023076;28;20492;-61
2021/10/20 09:46:11;;;;;;;10.50;6.55;;;;;;;18.32;48.91;98147.31;5024557;28;20053;-60
2021/10/20 09:48:42;;;;;;;7.15;5.63;;;;;;;18.58;48.07;98149.84;5029705;28;20520;-62
2021/10/20 09:51:12;;;;;;;6.97;5.78;;;;;;;18.42;47.95;98104.50;5023547;28;20053;-70
2021/10/20 09:53:41;;;;;;;7.30;5.90;;;;;;;18.88;47.35;98139.09;5024129;28;20053;-72
2021/10/20 09:56:22;;;;;;;8.18;5.55;;;;;;;18.84;46.39;98132.66;5022892;28;20156;-72
2021/10/20 09:58:50;;;;;;;7.90;6.35;;;;;;;18.93;47.28;98130.28;5021083;28;20527;-70
2021/10/20 10:01:18;;;;;;;7.70;5.82;;;;;;;19.08;47.29;98131.91;5022446;28;20053;-71
2021/10/20 10:03:45;;;;;;;6.43;5.70;;;;;;;19.10;45.72;98129.50;5023979;28;20061;-59
2021/10/20 10:06:12;;;;;;;7.55;5.75;;;;;;;19.10;46.69;98123.06;5023105;28;20144;-59
2021/10/20 10:08:40;;;;;;;8.70;6.50;;;;;;;18.98;46.71;98121.47;5023229;28;20064;-71
2021/10/20 10:11:07;;;;;;;6.50;5.82;;;;;;;18.92;45.14;98072.50;5021786;28;20061;-72
2021/10/20 10:13:41;;;;;;;7.97;5.45;;;;;;;18.77;45.60;98056.06;5021925;28;20056;-58
2021/10/20 10:16:09;;;;;;;6.90;6.20;;;;;;;18.50;46.02;97987.44;5021341;28;20064;-59
2021/10/20 10:18:41;;;;;;;6.43;5.72;;;;;;;18.96;43.85;98055.66;5021816;28;20500;-59
2021/10/20 10:21:28;;;;;;;6.65;5.95;;;;;;;19.54;44.64;98109.44;5021517;28;20136;-60
2021/10/20 10:24:00;;;;;;;7.03;6.03;;;;;;;19.65;44.80;98106.63;5021220;28;20045;-70
2021/10/20 10:26:27;;;;;;;11.18;7.07;;;;;;;19.12;44.64;98042.03;5021096;28;21204;-73
2021/10/20 10:29:13;;;;;;;8.55;6.50;;;;;;;19.55;45.42;98086.56;5022865;28;20107;-69
2021/10/20 10:31:43;;;;;;;6.65;5.38;;;;;;;19.53;44.66;98066.50;5022687;28;20503;-60
2021/10/20 10:34:33;;;;;;;7.68;5.93;;;;;;;19.78;44.49;98097.38;5023210;28;20347;-60
2021/10/20 10:37:00;;;;;;;5.90;5.28;;;;;;;17.88;44.21;97818.69;5022361;28;20072;-59
2021/10/20 10:39:29;;;;;;;7.43;6.50;;;;;;;19.37;44.46;98105.47;5021574;28;20064;-61
2021/10/20 10:42:04;;;;;;;6.20;5.60;;;;;;;19.45;43.93;98080.97;5022027;28;20068;-68
2021/10/20 10:44:43;;;;;;;6.25;5.65;;;;;;;19.86;44.14;98084.09;5022278;28;20049;-61
2021/10/20 10:47:10;;;;;;;9.18;6.00;;;;;;;20.07;44.13;98081.22;5022087;28;20061;-61
2021/10/20 10:49:45;;;;;;;6.68;6.07;;;;;;;20.04;44.56;98077.22;5021845;28;20053;-71
2021/10/20 10:52:22;;;;;;;6.90;6.18;;;;;;;19.84;45.30;98078.09;5021719;28;20054;-62
2021/10/20 10:54:57;;;;;;;8.95;6.50;;;;;;;19.79;44.29;98070.84;5021873;28;20057;-69
2021/10/20 10:57:36;;;;;;;7.72;6.03;;;;;;;19.61;45.24;98007.44;5022307;28;20041;-69
2021/10/20 11:00:18;;;;;;;7.03;5.82;;;;;;;19.97;45.07;98060.34;5017520;28;20049;-64
2021/10/20 11:02:51;;;;;;;8.02;5.97;;;;;;;19.19;44.38;97989.44;5022489;28;20071;-74
2021/10/20 11:05:25;;;;;;;7.72;6.00;;;;;;;19.60;44.87;98067.69;5015973;28;20171;-68
2021/10/20 11:07:58;;;;;;;12.07;5.80;;;;;;;19.33;44.53;97992.25;5021902;28;20492;-71
2021/10/20 11:10:25;;;;;;;7.55;6.38;;;;;;;19.74;44.06;98056.41;5021091;28;20072;-59
2021/10/20 11:12:55;;;;;;;8.90;5.50;;;;;;;19.46;43.63;98013.09;5018247;28;20567;-63
2021/10/20 11:15:24;;;;;;;6.97;5.65;;;;;;;19.21;44.71;98053.66;5021606;28;20050;-65
2021/10/20 11:17:51;;;;;;;8.75;6.60;;;;;;;19.58;45.34;98049.19;5020286;28;20060;-67
2021/10/20 11:20:23;;;;;;;9.05;6.28;;;;;;;19.58;44.38;98008.25;5022327;28;20065;-60
2021/10/20 11:22:52;;;;;;;7.50;5.88;;;;;;;19.99;44.50;98029.81;5025915;28;20071;-72
2021/10/20 11:25:21;;;;;;;8.07;5.85;;;;;;;20.10;42.95;98046.63;5026128;28;20049;-62
2021/10/20 11:28:07;;;;;;;7.40;6.53;;;;;;;19.89;44.71;98029.81;5025948;28;20052;-72
2021/10/20 11:30:35;;;;;;;6.60;5.57;;;;;;;19.62;44.46;97964.09;5023144;28;20278;-66
2021/10/20 11:33:10;;;;;;;7.80;5.95;;;;;;;19.54;44.08;97947.22;5024884;28;20147;-72